createdAt,value
2018-04-12T00:01:00.232Z,10.30
2018-04-12T00:03:30.472Z,10.30
2018-04-12T00:06:00.988Z,10.30
2018-04-12T00:08:31.527Z,10.20
2018-04-12T00:11:02.049Z,10.20
2018-04-12T00:13:32.589Z,10.10
2018-04-12T00:16:03.103Z,10.10
2018-04-12T00:18:33.843Z,10.10
2018-04-12T00:21:04.085Z,10.10
2018-04-12T00:23:34.706Z,10.10
2018-04-12T00:26:05.396Z,10.10
2018-04-12T00:28:36.042Z,10.10
2018-04-12T00:31:06.908Z,10.10
2018-04-12T00:33:37.629Z,10.10
2018-04-12T00:36:08.884Z,10.10
2018-04-12T00:38:40.182Z,10.10
2018-04-12T00:41:10.663Z,10.00
2018-04-12T00:43:41.205Z,10.00
2018-04-12T00:46:11.779Z,9.90
2018-04-12T00:48:42.349Z,9.90
2018-04-12T00:51:13.764Z,9.90
2018-04-12T00:54:06.041Z,9.90
2018-04-12T00:56:36.274Z,9.90
2018-04-12T00:59:06.487Z,9.80
2018-04-12T01:01:37.016Z,9.90
2018-04-12T01:04:07.651Z,9.90
2018-04-12T01:06:38.188Z,10.00
2018-04-12T01:09:09.280Z,10.00
2018-04-12T01:11:39.393Z,10.00
2018-04-12T01:14:10.072Z,10.00
2018-04-12T01:16:40.188Z,10.00
2018-04-12T01:19:11.133Z,10.00
2018-04-12T01:21:41.660Z,10.00
2018-04-12T01:24:12.367Z,10.00
2018-04-12T01:26:43.751Z,10.00
2018-04-12T01:29:13.969Z,10.00
2018-04-12T01:31:44.604Z,10.00
2018-04-12T01:34:15.100Z,10.00
2018-04-12T01:36:46.535Z,10.00
2018-04-12T01:39:17.113Z,10.00
2018-04-12T01:41:47.648Z,9.90
2018-04-12T01:44:18.371Z,9.90
2018-04-12T01:46:49.267Z,9.80
2018-04-12T01:49:19.797Z,9.70
2018-04-12T01:51:50.280Z,9.70
2018-04-12T01:54:20.803Z,9.70
2018-04-12T01:56:51.329Z,9.60
2018-04-12T01:59:21.969Z,9.60
2018-04-12T02:01:52.358Z,9.60
2018-04-12T02:04:22.917Z,9.60
2018-04-12T02:06:54.169Z,9.60
2018-04-12T02:09:25.432Z,9.70
2018-04-12T02:11:55.948Z,9.70
2018-04-12T02:14:26.424Z,9.70
2018-04-12T02:16:56.590Z,9.60
2018-04-12T02:19:27.133Z,9.70
2018-04-12T02:21:57.648Z,9.60
2018-04-12T02:24:27.769Z,9.70
2018-04-12T02:26:58.368Z,9.70
2018-04-12T02:29:28.988Z,9.70
2018-04-12T02:31:59.478Z,9.70
2018-04-12T02:34:30.098Z,9.70
2018-04-12T02:37:00.595Z,9.80
2018-04-12T02:39:31.108Z,12.40
2018-04-12T02:42:01.285Z,9.80
2018-04-12T02:44:31.966Z,9.80
2018-04-12T02:47:02.505Z,9.70
2018-04-12T02:49:33.070Z,9.70
2018-04-12T02:52:03.600Z,9.80
2018-04-12T02:54:34.696Z,9.80
2018-04-12T02:57:05.689Z,9.80
2018-04-12T02:59:35.901Z,9.80
2018-04-12T03:02:06.448Z,9.70
2018-04-12T03:04:37.021Z,9.90
2018-04-12T03:07:07.185Z,9.80
2018-04-12T03:09:37.872Z,9.80
2018-04-12T03:12:08.448Z,9.90
2018-04-12T03:14:38.932Z,9.90
2018-04-12T03:17:09.465Z,9.90
2018-04-12T03:19:40.070Z,9.90
2018-04-12T03:22:10.672Z,10.10
2018-04-12T03:24:41.308Z,10.10
2018-04-12T03:27:11.899Z,12.20
2018-04-12T03:29:42.470Z,10.20
2018-04-12T03:32:12.996Z,10.20
2018-04-12T03:34:43.529Z,10.30
2018-04-12T03:37:14.359Z,10.30
2018-04-12T03:39:46.016Z,10.30
2018-04-12T03:42:17.056Z,9.00
2018-04-12T03:44:47.690Z,10.40
2018-04-12T03:47:18.276Z,10.40
2018-04-12T03:49:48.803Z,10.40
2018-04-12T03:52:18.985Z,10.40
2018-04-12T03:54:49.192Z,9.00
2018-04-12T03:57:19.369Z,10.40
2018-04-12T03:59:50.013Z,10.30
2018-04-12T04:02:20.551Z,10.20
2018-04-12T04:04:51.112Z,10.20
2018-04-12T04:07:21.664Z,10.20
2018-04-12T04:09:52.275Z,10.40
2018-04-12T04:12:22.867Z,10.50
2018-04-12T04:15:02.304Z,10.50
2018-04-12T04:21:51.692Z,10.60
2018-04-12T04:24:22.286Z,10.40
2018-04-12T04:26:52.873Z,10.50
2018-04-12T04:29:23.490Z,10.50
2018-04-12T04:31:53.879Z,10.50
2018-04-12T04:34:24.504Z,10.50
2018-04-12T04:36:55.193Z,10.60
2018-04-12T04:39:25.812Z,10.40
2018-04-12T04:41:56.400Z,10.50
2018-04-12T04:44:26.985Z,10.50
2018-04-12T04:46:57.664Z,10.50
2018-04-12T04:49:28.202Z,10.60
2018-04-12T04:51:58.786Z,10.60
2018-04-12T04:54:30.168Z,10.60
2018-04-12T04:57:00.403Z,10.40
2018-04-12T04:59:30.980Z,10.40
2018-04-12T05:02:01.752Z,10.60
2018-04-12T05:04:32.396Z,10.40
2018-04-12T05:07:03.027Z,10.60
2018-04-12T05:09:33.652Z,13.60
2018-04-12T05:12:04.281Z,10.60
2018-04-12T05:14:34.469Z,10.80
2018-04-12T05:17:05.100Z,10.90
2018-04-12T05:19:35.669Z,11.00
2018-04-12T05:22:06.403Z,11.10
2018-04-12T05:24:39.041Z,11.10
2018-04-12T05:27:09.616Z,11.10
2018-04-12T05:29:51.676Z,11.20
2018-04-12T05:32:22.309Z,11.40
2018-04-12T05:34:52.882Z,11.50
2018-04-12T05:37:23.696Z,11.60
2018-04-12T05:39:54.429Z,11.50
2018-04-12T05:42:25.094Z,11.60
2018-04-12T05:44:55.709Z,11.70
2018-04-12T05:47:26.409Z,11.70
2018-04-12T05:49:57.032Z,11.80
2018-04-12T05:52:28.176Z,11.90
2018-04-12T05:54:58.755Z,11.90
2018-04-12T05:57:29.484Z,11.80
2018-04-12T06:00:00.234Z,12.00
2018-04-12T06:02:31.095Z,12.10
2018-04-12T06:05:02.257Z,12.30
2018-04-12T06:07:42.521Z,12.50
2018-04-12T06:10:30.089Z,12.80
2018-04-12T06:13:00.688Z,13.10
2018-04-12T06:15:32.544Z,13.50
2018-04-12T06:18:03.173Z,14.10
2018-04-12T06:20:33.765Z,14.70
2018-04-12T06:23:04.550Z,15.30
2018-04-12T06:25:45.258Z,15.70
2018-04-12T06:28:16.138Z,15.80
2018-04-12T06:30:47.021Z,15.60
2018-04-12T06:33:17.760Z,15.50
2018-04-12T06:35:48.455Z,15.50
2018-04-12T06:38:18.864Z,15.40
2018-04-12T06:40:49.261Z,15.00
2018-04-12T06:43:19.941Z,16.20
2018-04-12T06:45:50.203Z,17.20
2018-04-12T06:48:20.938Z,18.10
2018-04-12T06:50:51.812Z,18.90
2018-04-12T06:53:22.812Z,20.10
2018-04-12T06:55:53.766Z,21.20
2018-04-12T06:58:23.755Z,21.30
2018-04-12T07:00:53.525Z,22.40
2018-04-12T07:03:23.247Z,23.10
2018-04-12T07:06:04.774Z,23.80
2018-04-12T07:08:47.854Z,24.30
2018-04-12T07:11:17.670Z,24.30
2018-04-12T07:13:48.627Z,24.40
2018-04-12T07:16:18.521Z,24.30
2018-04-12T07:18:48.264Z,24.70
2018-04-12T07:21:18.393Z,25.00
2018-04-12T07:23:48.132Z,25.20
2018-04-12T07:26:18.637Z,25.70
2018-04-12T07:28:48.371Z,25.60
2018-04-12T07:31:24.873Z,26.00
2018-04-12T07:33:54.800Z,26.00
2018-04-12T07:36:24.753Z,23.50
2018-04-12T07:38:54.526Z,26.10
2018-04-12T07:41:24.272Z,26.10
2018-04-12T07:43:54.028Z,26.40
2018-04-12T07:46:23.774Z,26.60
2018-04-12T07:48:54.731Z,27.00
2018-04-12T07:51:24.526Z,27.50
2018-04-12T07:53:54.320Z,28.10
2018-04-12T07:56:24.060Z,28.50
2018-04-12T07:58:53.784Z,28.60
2018-04-12T08:01:23.524Z,28.00
2018-04-12T08:03:54.135Z,27.10
2018-04-12T08:06:23.855Z,27.10
2018-04-12T08:08:54.360Z,27.90
2018-04-12T08:11:24.108Z,27.90
2018-04-12T08:13:53.856Z,28.20
2018-04-12T08:16:23.693Z,27.80
2018-04-12T08:18:53.439Z,27.10
2018-04-12T08:21:23.971Z,27.00
2018-04-12T08:23:53.748Z,27.00
2018-04-12T08:26:23.491Z,27.30
2018-04-12T08:28:54.032Z,28.20
2018-04-12T08:31:23.787Z,28.10
2018-04-12T08:33:54.199Z,28.30
2018-04-12T08:36:23.968Z,28.90
2018-04-12T08:38:53.750Z,29.50
2018-04-12T08:41:23.906Z,29.90
2018-04-12T08:43:54.459Z,30.30
2018-04-12T08:49:03.660Z,30.90
2018-04-12T08:51:33.747Z,31.20
2018-04-12T08:54:12.036Z,31.50
2018-04-12T08:56:42.078Z,31.70
2018-04-12T08:59:24.064Z,31.80
2018-04-12T09:01:56.967Z,31.80
2018-04-12T09:04:27.108Z,32.00
2018-04-12T09:06:57.173Z,32.00
2018-04-12T09:09:30.494Z,31.80
2018-04-12T09:12:01.496Z,31.80
2018-04-12T09:14:32.039Z,32.00
2018-04-12T09:17:02.176Z,31.80
2018-04-12T09:19:31.459Z,32.00
2018-04-12T09:22:00.815Z,31.70
2018-04-12T09:24:30.071Z,32.10
2018-04-12T09:26:59.359Z,31.90
2018-04-12T09:29:29.394Z,30.90
2018-04-12T09:32:00.338Z,29.80
2018-04-12T09:34:30.385Z,28.70
2018-04-12T09:37:00.432Z,26.90
2018-04-12T09:39:30.500Z,28.90
2018-04-12T09:42:00.211Z,30.00
2018-04-12T09:44:30.256Z,29.40
2018-04-12T09:47:00.308Z,29.20
2018-04-12T09:49:30.429Z,29.00
2018-04-12T09:52:00.461Z,28.00
2018-04-12T09:54:30.493Z,26.80
2018-04-12T09:57:00.539Z,26.00
2018-04-12T09:59:30.573Z,25.20
2018-04-12T10:02:01.636Z,24.90
2018-04-12T10:04:36.284Z,24.20
2018-04-12T10:07:06.471Z,23.40
2018-04-12T10:09:37.468Z,23.10
2018-04-12T10:12:08.091Z,22.90
2018-04-12T10:14:38.220Z,22.80
2018-04-12T10:17:08.469Z,22.60
2018-04-12T10:19:38.701Z,21.00
2018-04-12T10:22:08.820Z,23.00
2018-04-12T10:24:39.348Z,23.40
2018-04-12T10:27:09.468Z,23.80
2018-04-12T10:29:39.229Z,22.60
2018-04-12T10:32:09.297Z,24.20
2018-04-12T10:34:39.480Z,24.60
2018-04-12T10:37:09.746Z,24.80
2018-04-12T10:39:39.864Z,25.10
2018-04-12T10:42:10.090Z,25.60
2018-04-12T10:44:40.609Z,25.50
2018-04-12T10:47:11.912Z,25.70
2018-04-12T10:49:42.033Z,26.10
2018-04-12T10:52:12.123Z,26.30
2018-04-12T10:54:49.856Z,26.70
2018-04-12T10:57:20.028Z,26.60
2018-04-12T10:59:50.377Z,26.60
2018-04-12T11:02:21.384Z,26.30
2018-04-12T11:04:51.508Z,26.20
2018-04-12T11:07:21.625Z,25.90
2018-04-12T11:09:57.821Z,25.50
2018-04-12T11:12:28.009Z,25.40
2018-04-12T11:14:58.129Z,25.00
2018-04-12T11:17:29.324Z,24.60
2018-04-12T11:19:59.512Z,24.40
2018-04-12T11:22:29.715Z,24.40
2018-04-12T11:24:59.840Z,24.20
2018-04-12T11:27:41.936Z,23.90
2018-04-12T11:30:12.461Z,23.40
2018-04-12T11:32:54.283Z,23.10
2018-04-12T11:35:24.487Z,23.00
2018-04-12T11:37:54.614Z,23.00
2018-04-12T11:40:24.796Z,23.10
2018-04-12T11:42:55.376Z,23.00
2018-04-12T11:45:25.669Z,23.20
2018-04-12T11:47:55.918Z,23.50
2018-04-12T11:50:27.177Z,23.70
2018-04-12T11:52:57.382Z,23.80
2018-04-12T11:55:27.931Z,24.00
2018-04-12T11:57:58.281Z,24.00
2018-04-12T12:00:35.726Z,23.80
2018-04-12T12:03:05.898Z,23.90
2018-04-12T12:05:36.697Z,24.00
2018-04-12T12:08:08.663Z,23.90
2018-04-12T12:10:40.769Z,23.90
2018-04-12T12:13:10.877Z,24.30
2018-04-12T12:15:41.048Z,24.30
2018-04-12T12:18:11.346Z,24.30
2018-04-12T12:20:42.069Z,24.10
2018-04-12T12:23:12.182Z,23.90
2018-04-12T12:25:42.305Z,23.70
2018-04-12T12:28:13.189Z,23.60
2018-04-12T12:30:43.307Z,23.40
2018-04-12T12:33:13.129Z,23.40
2018-04-12T12:35:44.059Z,23.60
2018-04-12T12:38:16.237Z,23.60
2018-04-12T12:40:46.714Z,23.90
2018-04-12T12:43:17.281Z,23.70
2018-04-12T12:45:47.737Z,23.60
2018-04-12T12:51:07.000Z,22.50
2018-04-12T12:53:37.121Z,22.10
2018-04-12T12:56:07.315Z,21.70
2018-04-12T12:58:37.455Z,21.80
2018-04-12T13:01:08.315Z,22.00
2018-04-12T13:03:38.910Z,22.20
2018-04-12T13:06:09.003Z,22.40
2018-04-12T13:08:39.124Z,22.30
2018-04-12T13:11:14.864Z,22.20
2018-04-12T13:13:44.915Z,22.50
2018-04-12T13:16:14.962Z,23.10
2018-04-12T13:18:45.002Z,24.00
2018-04-12T13:21:15.082Z,24.90
2018-04-12T13:23:45.192Z,23.90
2018-04-12T13:26:15.305Z,25.50
2018-04-12T13:28:45.390Z,25.30
2018-04-12T13:31:15.557Z,24.90
2018-04-12T13:33:45.616Z,24.60
2018-04-12T13:36:15.744Z,25.00
2018-04-12T13:38:45.842Z,25.30
2018-04-12T13:41:15.892Z,25.50
2018-04-12T13:43:45.951Z,25.30
2018-04-12T13:46:16.052Z,25.00
2018-04-12T13:48:46.183Z,24.60
2018-04-12T13:51:17.311Z,24.30
2018-04-12T13:53:49.128Z,24.00
2018-04-12T13:56:23.239Z,23.80
2018-04-12T13:58:54.021Z,23.60
2018-04-12T14:01:24.163Z,23.80
2018-04-12T14:03:54.222Z,24.20
2018-04-12T14:06:24.331Z,24.30
2018-04-12T14:08:54.453Z,24.20
2018-04-12T14:11:25.912Z,23.80
2018-04-12T14:13:56.000Z,23.30
2018-04-12T14:16:26.050Z,23.00
2018-04-12T14:18:56.105Z,22.70
2018-04-12T14:21:26.189Z,22.40
2018-04-12T14:23:56.265Z,22.20
2018-04-12T14:26:26.325Z,22.20
2018-04-12T14:28:55.724Z,22.10
2018-04-12T14:31:25.751Z,22.20
2018-04-12T14:33:55.831Z,22.10
2018-04-12T14:36:25.876Z,22.10
2018-04-12T14:38:58.002Z,20.90
2018-04-12T14:41:28.095Z,22.60
2018-04-12T14:43:58.189Z,22.70
2018-04-12T14:46:28.250Z,22.80
2018-04-12T14:48:59.353Z,23.10
2018-04-12T14:51:29.409Z,23.30
2018-04-12T14:54:01.054Z,23.30
2018-04-12T14:56:39.687Z,23.50
2018-04-12T14:59:09.743Z,23.70
2018-04-12T15:01:48.740Z,23.80
2018-04-12T15:04:18.820Z,23.80
2018-04-12T15:06:48.913Z,23.80
2018-04-12T15:09:18.969Z,23.60
2018-04-12T15:11:49.792Z,23.50
2018-04-12T15:14:21.513Z,23.20
2018-04-12T15:16:51.630Z,23.00
2018-04-12T15:19:21.704Z,22.60
2018-04-12T15:21:51.739Z,22.30
2018-04-12T15:24:21.804Z,22.10
2018-04-12T15:26:58.761Z,22.10
2018-04-12T15:29:43.014Z,22.00
2018-04-12T15:32:19.004Z,21.90
2018-04-12T15:34:54.369Z,21.90
2018-04-12T15:37:28.627Z,21.70
2018-04-12T15:39:58.665Z,21.70
2018-04-12T15:42:28.717Z,21.60
2018-04-12T15:44:58.414Z,21.50
2018-04-12T15:47:28.445Z,21.40
2018-04-12T15:49:58.485Z,21.30
2018-04-12T15:52:28.555Z,21.20
2018-04-12T15:54:58.660Z,21.10
2018-04-12T15:57:28.713Z,21.00
2018-04-12T15:59:58.761Z,20.90
2018-04-12T16:02:28.833Z,20.90
2018-04-12T16:05:12.037Z,20.80
2018-04-12T16:07:42.126Z,20.80
2018-04-12T16:10:11.800Z,20.80
2018-04-12T16:12:41.874Z,20.60
2018-04-12T16:15:11.927Z,20.40
2018-04-12T16:17:42.060Z,20.30
2018-04-12T16:20:12.085Z,20.20
2018-04-12T16:22:42.157Z,20.10
2018-04-12T16:25:12.228Z,20.00
2018-04-12T16:27:42.320Z,20.00
2018-04-12T16:30:12.510Z,20.00
2018-04-12T16:32:42.595Z,20.00
2018-04-12T16:35:12.693Z,20.00
2018-04-12T16:37:42.422Z,19.90
2018-04-12T16:40:12.499Z,19.80
2018-04-12T16:42:42.612Z,19.70
2018-04-12T16:45:12.774Z,19.60
2018-04-12T16:47:44.937Z,19.50
2018-04-12T16:50:15.441Z,19.40
2018-04-12T16:52:50.384Z,19.20
2018-04-12T16:55:23.574Z,19.30
2018-04-12T16:58:02.395Z,19.10
2018-04-12T17:00:35.927Z,19.10
2018-04-12T17:03:06.583Z,18.90
2018-04-12T17:05:37.389Z,19.00
2018-04-12T17:08:08.532Z,18.90
2018-04-12T17:10:41.029Z,18.90
2018-04-12T17:13:12.343Z,18.90
2018-04-12T17:15:43.409Z,18.90
2018-04-12T17:18:14.395Z,18.90
2018-04-12T17:20:45.755Z,18.90
2018-04-12T17:23:17.094Z,17.60
2018-04-12T17:28:26.412Z,18.70
2018-04-12T17:30:57.826Z,18.70
2018-04-12T17:33:29.385Z,18.60
2018-04-12T17:36:00.968Z,18.60
2018-04-12T17:38:32.152Z,18.40
2018-04-12T17:41:03.425Z,18.50
2018-04-12T17:43:39.073Z,18.50
2018-04-12T17:46:10.154Z,18.40
2018-04-12T17:48:43.131Z,18.40
2018-04-12T17:51:14.151Z,18.40
2018-04-12T17:53:48.467Z,18.20
2018-04-12T17:56:18.644Z,18.00
2018-04-12T17:58:49.009Z,18.00
2018-04-12T18:01:19.408Z,17.80
2018-04-12T18:03:49.606Z,17.70
2018-04-12T18:06:20.105Z,17.70
2018-04-12T18:08:53.164Z,17.50
2018-04-12T18:11:23.321Z,17.40
2018-04-12T18:13:55.213Z,17.30
2018-04-12T18:16:25.310Z,17.20
2018-04-12T18:18:55.475Z,17.00
2018-04-12T18:21:25.725Z,16.90
2018-04-12T18:23:55.783Z,16.70
2018-04-12T18:26:25.848Z,16.50
2018-04-12T18:28:56.272Z,16.40
2018-04-12T18:31:25.981Z,16.30
2018-04-12T18:33:56.035Z,16.20
2018-04-12T18:36:44.533Z,16.10
2018-04-12T18:39:15.720Z,16.00
2018-04-12T18:41:45.941Z,16.00
2018-04-12T18:44:15.745Z,15.90
2018-04-12T18:46:46.017Z,15.90
2018-04-12T18:49:16.384Z,15.80
2018-04-12T18:51:46.728Z,15.60
2018-04-12T18:54:17.044Z,15.30
2018-04-12T18:56:47.594Z,15.30
2018-04-12T18:59:18.587Z,15.30
2018-04-12T19:01:50.675Z,15.10
2018-04-12T19:04:20.962Z,15.20
2018-04-12T19:06:51.120Z,15.10
2018-04-12T19:09:21.241Z,14.90
2018-04-12T19:12:04.039Z,14.90
2018-04-12T19:14:34.396Z,14.90
2018-04-12T19:17:04.867Z,14.90
2018-04-12T19:19:37.503Z,14.90
2018-04-12T19:22:11.585Z,14.80
2018-04-12T19:24:41.827Z,14.80
2018-04-12T19:27:12.127Z,14.80
2018-04-12T19:29:42.685Z,14.60
2018-04-12T19:32:13.647Z,14.60
2018-04-12T19:34:45.200Z,14.50
2018-04-12T19:37:37.938Z,14.50
2018-04-12T19:40:08.040Z,14.40
2018-04-12T19:42:38.278Z,14.40
2018-04-12T19:45:08.571Z,14.30
2018-04-12T19:47:38.781Z,14.20
2018-04-12T19:50:09.045Z,14.20
2018-04-12T19:52:39.279Z,14.10
2018-04-12T19:55:09.283Z,14.00
2018-04-12T19:57:39.500Z,14.00
2018-04-12T20:00:09.860Z,14.00
2018-04-12T20:02:40.116Z,13.90
2018-04-12T20:05:10.263Z,13.90
2018-04-12T20:07:40.596Z,13.80
2018-04-12T20:10:11.120Z,13.70
2018-04-12T20:12:41.405Z,13.50
2018-04-12T20:15:14.810Z,13.40
2018-04-12T20:17:45.900Z,13.30
2018-04-12T20:20:16.111Z,13.20
2018-04-12T20:22:46.399Z,13.10
2018-04-12T20:25:16.573Z,13.00
2018-04-12T20:27:47.495Z,12.80
2018-04-12T20:30:17.632Z,12.90
2018-04-12T20:32:47.936Z,12.80
2018-04-12T20:35:18.991Z,12.80
2018-04-12T20:37:49.727Z,12.90
2018-04-12T20:40:25.985Z,12.90
2018-04-12T20:42:56.186Z,12.90
2018-04-12T20:45:27.235Z,12.80
2018-04-12T20:47:57.493Z,12.80
2018-04-12T20:50:27.279Z,12.80
2018-04-12T20:52:57.508Z,12.80
2018-04-12T20:55:27.719Z,12.80
2018-04-12T20:57:58.011Z,12.70
2018-04-12T21:00:28.578Z,12.70
2018-04-12T21:02:58.958Z,12.60
2018-04-12T21:05:29.591Z,12.50
2018-04-12T21:07:59.884Z,12.50
2018-04-12T21:10:30.287Z,12.40
2018-04-12T21:13:00.628Z,12.40
2018-04-12T21:15:30.860Z,12.30
2018-04-12T21:18:01.027Z,12.30
2018-04-12T21:20:31.544Z,12.10
2018-04-12T21:23:02.237Z,12.30
2018-04-12T21:25:32.542Z,12.20
2018-04-12T21:28:02.880Z,12.20
2018-04-12T21:30:33.362Z,12.30
2018-04-12T21:33:03.648Z,12.30
2018-04-12T21:35:34.176Z,12.30
2018-04-12T21:38:04.626Z,12.20
2018-04-12T21:40:34.899Z,12.20
2018-04-12T21:43:05.308Z,12.30
2018-04-12T21:45:35.664Z,12.40
2018-04-12T21:48:05.836Z,12.50
2018-04-12T21:50:36.816Z,9.90
2018-04-12T21:53:07.595Z,13.00
2018-04-12T21:55:38.723Z,13.00
2018-04-12T21:58:08.773Z,13.00
2018-04-12T22:00:39.354Z,13.00
2018-04-12T22:03:09.584Z,12.90
2018-04-12T22:05:39.315Z,12.90
2018-04-12T22:08:09.593Z,12.80
2018-04-12T22:10:39.807Z,12.70
2018-04-12T22:13:10.898Z,12.60
2018-04-12T22:15:41.087Z,12.50
2018-04-12T22:18:11.374Z,12.40
2018-04-12T22:20:41.708Z,12.30
2018-04-12T22:23:12.175Z,12.20
2018-04-12T22:25:42.290Z,12.10
2018-04-12T22:28:12.057Z,12.00
2018-04-12T22:30:42.178Z,12.00
2018-04-12T22:33:12.297Z,11.90
2018-04-12T22:35:43.101Z,11.80
2018-04-12T22:38:13.367Z,11.80
2018-04-12T22:40:43.520Z,11.70
2018-04-12T22:43:14.158Z,11.70
2018-04-12T22:45:44.276Z,11.70
2018-04-12T22:48:14.402Z,11.70
2018-04-12T22:50:44.566Z,11.70
2018-04-12T22:53:14.295Z,11.70
2018-04-12T22:55:44.557Z,11.70
2018-04-12T22:58:15.379Z,11.70
2018-04-12T23:00:46.210Z,11.70
2018-04-12T23:03:16.349Z,11.60
2018-04-12T23:05:47.490Z,11.60
2018-04-12T23:08:17.219Z,11.60
2018-04-12T23:10:47.367Z,11.60
2018-04-12T23:13:17.500Z,11.60
2018-04-12T23:15:47.656Z,11.70
2018-04-12T23:18:17.895Z,11.90
2018-04-12T23:20:48.215Z,12.00
2018-04-12T23:23:18.387Z,12.20
2018-04-12T23:25:48.502Z,12.40
2018-04-12T23:28:18.627Z,12.50
2018-04-12T23:30:48.789Z,12.70
2018-04-12T23:33:18.662Z,12.90
2018-04-12T23:35:48.787Z,13.10
2018-04-12T23:38:18.949Z,13.20
2018-04-12T23:40:48.768Z,13.30
2018-04-12T23:43:20.179Z,13.40
2018-04-12T23:45:50.327Z,13.40
2018-04-12T23:48:20.740Z,13.30
2018-04-12T23:50:51.526Z,13.30
2018-04-12T23:53:21.636Z,13.30
2018-04-12T23:55:52.408Z,13.40
2018-04-12T23:58:23.136Z,13.50
